Home > Products > Valid Products > TAF

000
FTUS44 KJAN 282136 AAA
TAFMEI
TAF AMD
KMEI 282136Z 2822/2918 19006KT P6SM SKC
     FM290100 19004KT P6SM FEW050 SCT250
     FM291000 VRB03KT 4SM BR FEW009
     FM291400 34005KT P6SM SCT250=



000
FTUS44 KJAN 281720
TAFHBG
TAF
KHBG 281720Z 2818/2918 17008KT P6SM FEW030 SCT050 BKN250
     FM282000 18008KT P6SM VCTS SCT050CB BKN250
     FM290000 20004KT P6SM BKN250
     FM291000 VRB03KT 3SM BR SCT006
     FM291400 VRB03KT P6SM SCT250=



000
FTUS44 KJAN 280924 AAA
TAFGWO
TAF AMD
KGWO 280924Z 2809/2906 22005KT P6SM SKC
     FM281100 15007KT P6SM SCT025
     FM281900 18009KT P6SM VCSH OVC050
     FM290100 19006KT P6SM SKC=



000
FTUS44 KJAN 280844 AAB
TAFGLH
TAF AMD
KGLH 280844Z 2809/2906 30004KT P6SM FEW009 FEW015 BKN120
     FM281100 15007KT P6SM SCT025
     FM281800 19009KT P6SM VCSH OVC050
     FM290000 21006KT P6SM SKC=



000
FTUS44 KJAN 272215 AAB
TAFGLH
TAF AMD
KGLH 272215Z 2722/2818 20008KT 5SM RA BR VCTS FEW016 BKN080
      OVC090CB
     FM280200 17009KT P6SM SCT050 BKN150
     FM281500 18010G18KT P6SM BKN025=



000
FTUS44 KJAN 271154
TAFGWO
TAF
KGWO 271154Z 2712/2812 15008KT P6SM -RA VCSH FEW022 SCT100
     FM271600 16011G17KT P6SM VCTS BKN035CB
     FM280100 17009KT P6SM OVC100=



000
FTUS44 KJAN 271154
TAFGLH
TAF
KGLH 271154Z 2712/2812 18012KT P6SM BKN120
     FM271300 16010KT P6SM OVC025
     FM271600 16010G16KT P6SM VCTS OVC025CB
     FM271800 15017G23KT P6SM VCTS BKN035CB
     FM280100 17013KT P6SM OVC100=



000
FTUS44 KJAN 271154
TAFMEI
TAF
KMEI 271154Z 2712/2812 18003KT P6SM FEW008
     FM271800 16012G18KT P6SM SCT040 OVC250
     FM280000 17004KT P6SM SCT100 OVC250=



000
FTUS44 KJAN 271154
TAFJAN
TAF
KJAN 271154Z 2712/2812 16006KT P6SM VCSH FEW015 SCT110
     FM271300 16009KT P6SM OVC015
     FM271500 16009KT P6SM BKN025
     FM271700 15012G20KT P6SM BKN035
     FM280100 16004KT P6SM OVC100=



000
FTUS44 KJAN 271154
TAFHBG
TAF
KHBG 271154Z 2712/2812 11005KT P6SM SKC
     FM271700 16013G19KT P6SM SCT100 BKN250
     FM281000 00000KT P6SM OVC100=



000
FTUS44 KJAN 270520
TAFMEI
TAF
KMEI 270520Z 2706/2806 18005KT P6SM OVC250
     FM271000 00000KT 4SM BR OVC015
     FM271400 17004KT P6SM OVC025
     FM271600 16011G17KT P6SM BKN035
     FM280000 17006KT P6SM BKN250=



000
FTUS44 KJAN 270520
TAFJAN
TAF
KJAN 270520Z 2706/2806 18008KT P6SM SCT100 OVC250
     FM270800 16004KT P6SM OVC015
     FM271400 16011KT P6SM OVC025
     FM271600 16012G18KT P6SM BKN035
     FM280000 15010KT P6SM BKN250=



000
FTUS44 KJAN 270520
TAFHBG
TAF
KHBG 270520Z 2706/2806 15004KT P6SM OVC250
     FM271000 15003KT 4SM BR OVC015
     FM271400 14007KT P6SM OVC025
     FM271600 16013G20KT P6SM BKN035
     FM280000 16007KT P6SM BKN250=



    US Dept of Commerce
    National Oceanic and Atmospheric Administration
    National Weather Service
    1325 East West Highway
    Silver Spring, MD 20910
    Page Author: NWS Internet Services Team
Disclaimer
Information Quality
Credits
Glossary
Privacy Policy
Freedom of Information Act (FOIA)
About Us
Career Opportunities